Time;durP1;ratioP1;P1;durP2;ratioP2;P2;SDS_P1;SDS_P2;PMS_P1;PMS_P2;Temp;Humidity;BMP_temperature;BMP_pressure;BME280_temperature;BME280_humidity;BME280_pressure;Samples;Min_cycle;Max_cycle;Signal;HPM_P1;HPM_P2
2022/06/05 00:00:52;;;;;;;1.58;1.40;;;;;;;19.20;67.35;101084.25;4931202;28;103821;-85
2022/06/05 00:03:31;;;;;;;1.70;1.50;;;;;;;19.22;67.14;101086.69;4934406;28;102261;-85
2022/06/05 00:06:06;;;;;;;2.67;1.65;;;;;;;19.23;67.33;101082.00;4933323;28;102911;-85
2022/06/05 00:08:45;;;;;;;1.63;1.45;;;;;;;19.21;67.46;101083.09;4933675;28;102153;-85
2022/06/05 00:11:12;;;;;;;1.92;1.67;;;;;;;19.22;66.88;101078.41;4932000;28;103927;-85
2022/06/05 00:13:44;;;;;;;3.83;1.50;;;;;;;19.22;67.15;101078.41;4934933;28;102212;-85
2022/06/05 00:16:13;;;;;;;2.35;1.73;;;;;;;19.23;67.46;101074.53;4934814;28;102366;-84
2022/06/05 00:18:42;;;;;;;1.70;1.50;;;;;;;19.23;67.53;101082.81;4934718;28;102157;-84
2022/06/05 00:21:09;;;;;;;1.92;1.70;;;;;;;19.21;67.63;101072.06;4934160;28;103986;-84
2022/06/05 00:23:38;;;;;;;2.15;1.67;;;;;;;19.21;67.33;101074.03;4935361;28;102329;-84
2022/06/05 00:26:16;;;;;;;2.45;1.77;;;;;;;19.22;67.86;101075.63;4932955;28;102374;-84
2022/06/05 00:28:52;;;;;;;1.90;1.50;;;;;;;19.21;67.53;101080.34;4935478;28;102583;-84
2022/06/05 00:31:29;;;;;;;1.95;1.23;;;;;;;19.22;67.58;101081.16;4933493;28;104084;-84
2022/06/05 00:33:58;;;;;;;2.67;1.50;;;;;;;19.21;67.65;101079.53;4934429;28;102368;-84
2022/06/05 00:36:37;;;;;;;1.98;1.58;;;;;;;19.21;68.07;101074.84;4932149;28;102160;-84
2022/06/05 00:39:10;;;;;;;5.32;1.50;;;;;;;19.21;67.47;101080.34;4935925;28;102398;-83
2022/06/05 00:41:50;;;;;;;3.35;1.55;;;;;;;19.21;67.67;101080.34;4932715;28;104067;-84
2022/06/05 00:44:23;;;;;;;2.78;1.70;;;;;;;19.23;67.52;101077.28;4928667;28;102146;-84
2022/06/05 00:46:51;;;;;;;2.33;1.63;;;;;;;19.21;67.48;101080.34;4931656;28;102335;-83
2022/06/05 00:49:23;;;;;;;3.13;1.60;;;;;;;19.22;67.49;101070.13;4933444;28;102502;-84
2022/06/05 00:51:49;;;;;;;1.85;1.50;;;;;;;19.21;67.89;101068.50;4934086;28;103949;-84
2022/06/05 00:54:16;;;;;;;1.92;1.40;;;;;;;19.21;67.65;101068.50;4935111;28;102529;-84
2022/06/05 00:56:43;;;;;;;2.10;1.75;;;;;;;19.22;67.65;101072.88;4933161;28;102097;-84
2022/06/05 00:59:12;;;;;;;3.25;1.95;;;;;;;19.22;67.57;101064.59;4935246;28;102601;-84
2022/06/05 01:01:41;;;;;;;1.85;1.33;;;;;;;19.23;67.50;101069.00;4928907;28;103884;-84
2022/06/05 01:04:08;;;;;;;1.50;1.40;;;;;;;19.21;67.65;101063.78;4934352;28;102370;-84
2022/06/05 01:06:36;;;;;;;2.45;1.27;;;;;;;19.21;67.59;101066.56;4934416;28;102612;-84
2022/06/05 01:09:04;;;;;;;1.77;1.60;;;;;;;19.22;67.52;101061.84;4935708;28;102605;-84
2022/06/05 01:11:39;;;;;;;2.70;1.55;;;;;;;19.20;67.75;101048.38;4925076;28;104060;-84
2022/06/05 01:14:13;;;;;;;2.10;1.48;;;;;;;19.21;67.71;101054.72;4917937;28;102346;-84
2022/06/05 01:16:49;;;;;;;2.10;1.60;;;;;;;19.21;67.89;101043.69;4934339;28;102470;-84
2022/06/05 01:19:35;;;;;;;1.67;1.42;;;;;;;19.20;67.57;101039.28;4934235;28;103048;-84
2022/06/05 01:22:56;;;;;;;3.42;1.45;;;;;;;19.21;67.96;101040.91;4933119;28;103932;-84
2022/06/05 01:25:55;;;;;;;1.85;1.60;;;;;;;19.20;67.48;101034.59;4926936;28;102243;-84
2022/06/05 01:28:23;;;;;;;;;;;;;;;19.20;67.30;101031.84;4931642;28;102380;-84
2022/06/05 01:30:56;;;;;;;3.60;1.80;;;;;;;19.20;67.21;101022.75;4937258;28;102157;-84
2022/06/05 01:33:26;;;;;;;1.60;1.42;;;;;;;19.20;67.13;101022.75;4935161;28;104349;-84
2022/06/05 01:36:02;;;;;;;1.75;1.60;;;;;;;19.21;67.51;101025.16;4936946;28;102423;-84
2022/06/05 01:38:38;;;;;;;1.60;1.50;;;;;;;19.20;67.35;101022.75;4936808;28;102276;-84
2022/06/05 01:41:11;;;;;;;1.73;1.50;;;;;;;19.20;67.56;101029.06;4937747;28;102418;-84
2022/06/05 01:43:44;;;;;;;2.60;1.65;;;;;;;19.21;67.17;101033.44;4936676;28;104042;-84
2022/06/05 01:46:16;;;;;;;2.25;1.70;;;;;;;19.21;67.46;101035.41;4936334;28;103043;-84
2022/06/05 01:48:49;;;;;;;1.92;1.60;;;;;;;19.21;67.36;101032.63;4935707;28;102219;-84
2022/06/05 01:51:22;;;;;;;1.95;1.60;;;;;;;19.20;67.69;101026.31;4937432;28;102228;-84
2022/06/05 01:53:51;;;;;;;1.58;1.30;;;;;;;19.21;67.61;101025.16;4936538;28;104067;-84
2022/06/05 01:56:26;;;;;;;2.78;1.65;;;;;;;19.20;67.38;101022.75;4934405;28;102419;-84
2022/06/05 01:58:55;;;;;;;1.77;1.50;;;;;;;19.20;67.50;101019.97;4929325;28;102424;-84
2022/06/05 02:01:26;;;;;;;1.45;1.33;;;;;;;19.20;67.62;101014.47;4937110;28;102647;-84
2022/06/05 02:03:57;;;;;;;2.33;1.92;;;;;;;19.21;67.80;101002.28;4935868;28;104446;-84
2022/06/05 02:06:29;;;;;;;2.15;1.70;;;;;;;19.21;67.50;101013.31;4935397;28;102364;-84
2022/06/05 02:09:02;;;;;;;1.63;1.50;;;;;;;19.20;67.64;101007.00;4935856;28;102357;-84
2022/06/05 02:11:33;;;;;;;1.92;1.45;;;;;;;19.20;67.74;101007.00;4936543;28;102608;-84
2022/06/05 02:14:02;;;;;;;1.63;1.52;;;;;;;19.21;67.97;101002.28;4934429;28;107928;-84
2022/06/05 02:16:33;;;;;;;2.03;1.83;;;;;;;19.21;68.08;101010.56;4936709;28;102154;-84
2022/06/05 02:19:01;;;;;;;;;;;;;;;19.20;67.69;100997.91;4935426;28;102526;-84
2022/06/05 02:21:29;;;;;;;1.42;1.33;;;;;;;19.20;67.57;101000.66;4936362;28;102240;-84
2022/06/05 02:23:56;;;;;;;1.95;1.75;;;;;;;19.21;67.44;101007.81;4934602;28;103943;-84
2022/06/05 02:26:23;;;;;;;2.15;1.95;;;;;;;19.20;67.39;101012.50;4936253;28;102338;-83
2022/06/05 02:28:51;;;;;;;3.75;1.52;;;;;;;19.21;67.69;101002.28;4934966;28;102398;-84
2022/06/05 02:31:30;;;;;;;1.63;1.53;;;;;;;19.21;67.81;101010.56;4936675;28;102342;-84
2022/06/05 02:34:04;;;;;;;;;;;;;;;19.20;67.97;101006.19;4935574;28;103416;-84
2022/06/05 02:36:38;;;;;;;1.70;1.55;;;;;;;19.21;67.92;101016.09;4935706;28;102758;-84
2022/06/05 02:39:17;;;;;;;4.90;1.63;;;;;;;19.20;68.12;101012.50;4935578;28;102512;-84
2022/06/05 02:41:53;;;;;;;3.20;1.60;;;;;;;19.21;68.12;101007.81;4929845;28;102633;-84
2022/06/05 02:44:29;;;;;;;3.10;1.45;;;;;;;19.20;67.81;101011.72;4934303;28;104451;-84
2022/06/05 02:47:13;;;;;;;1.45;1.35;;;;;;;19.20;68.01;101003.44;4935823;28;102110;-84
2022/06/05 02:49:46;;;;;;;7.38;1.63;;;;;;;19.21;67.96;101002.28;4934184;28;103620;-84
2022/06/05 02:52:14;;;;;;;3.45;1.70;;;;;;;19.19;67.95;100997.09;4936631;28;102575;-84
2022/06/05 02:54:45;;;;;;;1.85;1.75;;;;;;;19.21;66.87;101007.81;4932003;28;103804;-84
2022/06/05 02:57:13;;;;;;;2.35;1.70;;;;;;;19.22;67.26;101003.91;4935904;28;102213;-83
2022/06/05 02:59:41;;;;;;;2.50;1.85;;;;;;;19.22;67.36;100998.38;4933999;28;102326;-84
2022/06/05 03:04:52;;;;;;;3.97;1.58;;;;;;;19.22;67.25;101003.91;4933712;28;108447;-84
2022/06/05 03:07:20;;;;;;;4.15;1.70;;;;;;;19.21;67.87;101005.03;4935114;28;102718;-84
2022/06/05 03:09:47;;;;;;;2.95;1.63;;;;;;;19.23;68.14;101010.25;4934424;28;102711;-84
2022/06/05 03:12:17;;;;;;;1.70;1.55;;;;;;;19.22;68.18;101009.41;4935783;28;102420;-85
2022/06/05 03:14:45;;;;;;;1.42;1.33;;;;;;;19.21;68.14;101019.66;4935146;28;104149;-85
2022/06/05 03:17:12;;;;;;;4.43;1.58;;;;;;;19.23;67.80;101018.53;4934055;28;102356;-84
2022/06/05 03:19:39;;;;;;;2.05;1.85;;;;;;;19.22;67.88;101017.69;4934945;28;102312;-85
2022/06/05 03:22:06;;;;;;;3.88;1.60;;;;;;;19.22;67.91;101020.47;4935342;28;102352;-85
2022/06/05 03:24:33;;;;;;;1.75;1.52;;;;;;;19.23;67.98;101013.03;4933089;28;104324;-85
2022/06/05 03:26:59;;;;;;;1.92;1.52;;;;;;;19.22;68.04;101014.94;4925400;28;102612;-83
2022/06/05 03:29:26;;;;;;;1.98;1.33;;;;;;;19.23;67.85;101010.25;4933630;28;103064;-84
2022/06/05 03:31:54;;;;;;;1.92;1.80;;;;;;;19.22;67.95;101009.41;4934794;28;102256;-84
2022/06/05 03:34:21;;;;;;;1.50;1.40;;;;;;;19.23;68.09;100999.22;4932718;28;104033;-84
2022/06/05 03:36:48;;;;;;;3.67;2.03;;;;;;;19.22;67.59;100998.38;4931121;28;102239;-84
2022/06/05 03:39:14;;;;;;;1.27;1.20;;;;;;;19.23;67.60;100994.50;4934328;28;102066;-84
2022/06/05 03:41:42;;;;;;;1.75;1.65;;;;;;;19.23;67.99;100989.00;4934840;28;102453;-84
2022/06/05 03:44:09;;;;;;;2.83;1.60;;;;;;;19.24;67.94;100989.81;4933103;28;103897;-84
2022/06/05 03:46:39;;;;;;;3.45;1.60;;;;;;;19.23;67.81;100989.00;4934483;28;102684;-83
2022/06/05 03:49:09;;;;;;;1.73;1.63;;;;;;;19.23;67.97;100986.22;4932283;28;102819;-85
2022/06/05 03:51:36;;;;;;;3.22;1.30;;;;;;;19.24;68.03;100987.03;4933068;28;102672;-83
2022/06/05 03:54:02;;;;;;;1.80;1.70;;;;;;;19.24;68.23;100993.38;4933540;28;103854;-83
2022/06/05 03:56:29;;;;;;;1.45;1.35;;;;;;;19.25;68.12;100986.72;4934585;28;102106;-84
2022/06/05 03:58:57;;;;;;;1.88;1.40;;;;;;;19.25;68.01;100992.22;4934010;28;102627;-83
2022/06/05 04:01:26;;;;;;;1.70;1.55;;;;;;;19.26;68.34;100993.03;4935002;28;102070;-83
2022/06/05 04:03:53;;;;;;;;;;;;;;;19.25;68.34;100986.72;4923278;28;103913;-83
2022/06/05 04:06:23;;;;;;;1.45;1.35;;;;;;;19.26;68.23;100984.75;4920763;28;102544;-83
2022/06/05 04:08:51;;;;;;;1.50;1.40;;;;;;;19.25;68.47;100975.66;4934177;28;102307;-83
2022/06/05 04:11:18;;;;;;;1.58;1.48;;;;;;;19.27;68.24;100972.59;4934215;28;102591;-84
2022/06/05 04:13:45;;;;;;;1.95;1.40;;;;;;;19.28;68.32;100976.97;4933256;28;103930;-83
2022/06/05 04:16:16;;;;;;;1.58;1.40;;;;;;;19.28;68.64;100965.94;4933489;28;102558;-84
2022/06/05 04:18:43;;;;;;;1.55;1.45;;;;;;;19.28;68.43;100964.00;4933770;28;102443;-83
2022/06/05 04:21:13;;;;;;;1.60;1.33;;;;;;;19.29;68.79;100967.56;4932177;28;102405;-84
2022/06/05 04:23:41;;;;;;;1.70;1.60;;;;;;;19.30;68.82;100950.69;4913259;28;104074;-84
2022/06/05 04:26:11;;;;;;;3.08;1.50;;;;;;;19.30;68.50;100950.69;4933611;28;102462;-84
2022/06/05 04:28:38;;;;;;;;;;;;;;;19.30;68.69;100945.19;4932561;28;102397;-83
2022/06/05 04:31:14;;;;;;;1.70;1.55;;;;;;;19.31;68.48;100941.28;4933919;28;102995;-84
2022/06/05 04:33:42;;;;;;;1.77;1.45;;;;;;;19.31;68.50;100949.53;4933025;28;103793;-84
2022/06/05 04:36:08;;;;;;;1.85;1.40;;;;;;;19.31;68.91;100955.06;4934174;28;102866;-84
2022/06/05 04:38:35;;;;;;;2.13;1.70;;;;;;;19.31;68.60;100952.31;4933568;28;102371;-84
2022/06/05 04:41:03;;;;;;;2.08;1.40;;;;;;;19.32;68.50;100947.59;4935014;28;102405;-84
2022/06/05 04:43:29;;;;;;;1.73;1.40;;;;;;;19.31;68.78;100949.53;4934289;28;104191;-84
2022/06/05 04:45:56;;;;;;;1.65;1.55;;;;;;;19.31;68.53;100941.28;4932535;28;102230;-84
2022/06/05 04:48:22;;;;;;;2.88;1.52;;;;;;;19.32;68.68;100942.88;4936555;28;102302;-84
2022/06/05 04:50:49;;;;;;;1.85;1.73;;;;;;;19.31;68.66;100952.31;4936411;28;102067;-84
2022/06/05 04:53:16;;;;;;;1.55;1.45;;;;;;;19.31;68.71;100945.97;4934580;28;103913;-83
2022/06/05 04:55:42;;;;;;;1.90;1.80;;;;;;;19.31;68.47;100952.31;4937737;28;102563;-83
2022/06/05 04:58:10;;;;;;;2.28;1.55;;;;;;;19.32;68.64;100948.41;4936297;28;102660;-82
2022/06/05 05:00:38;;;;;;;2.23;2.03;;;;;;;19.32;68.36;100942.88;4939327;28;102154;-84
2022/06/05 05:03:05;;;;;;;1.90;1.80;;;;;;;19.33;68.71;100941.78;4940414;28;103883;-82
2022/06/05 05:05:33;;;;;;;2.17;1.67;;;;;;;19.33;68.58;100939.00;4940000;28;102368;-84
2022/06/05 05:08:00;;;;;;;2.05;1.85;;;;;;;19.34;68.47;100935.09;4941353;28;102632;-84
2022/06/05 05:10:26;;;;;;;2.67;1.92;;;;;;;19.35;68.46;100941.44;4937796;28;102539;-84
2022/06/05 05:12:53;;;;;;;2.13;1.92;;;;;;;19.34;68.46;100943.38;4937768;28;103569;-84
2022/06/05 05:15:22;;;;;;;1.88;1.77;;;;;;;19.35;68.39;100947.75;4936760;28;102447;-85
2022/06/05 05:17:49;;;;;;;2.40;2.20;;;;;;;19.36;68.70;100948.56;4937106;28;103215;-85
2022/06/05 05:20:16;;;;;;;2.28;2.08;;;;;;;19.36;68.48;100949.38;4936898;28;102273;-85
2022/06/05 05:22:43;;;;;;;3.75;1.90;;;;;;;19.38;68.59;100940.78;4935471;28;104116;-85
2022/06/05 05:25:11;;;;;;;2.10;1.90;;;;;;;19.37;68.49;100934.47;4936824;28;102848;-85
2022/06/05 05:27:39;;;;;;;2.75;2.10;;;;;;;19.39;68.40;100942.41;4930315;28;103195;-84
2022/06/05 05:30:09;;;;;;;2.03;1.90;;;;;;;19.39;68.47;100937.69;4933764;28;104949;-86
2022/06/05 05:32:37;;;;;;;2.70;2.20;;;;;;;19.42;68.40;100937.03;4931294;28;103469;-85
2022/06/05 05:35:07;;;;;;;2.25;2.05;;;;;;;19.42;68.44;100941.75;4936424;28;102056;-86
2022/06/05 05:37:33;;;;;;;2.45;2.25;;;;;;;19.45;68.41;100947.44;4927001;28;102438;-85
2022/06/05 05:42:45;;;;;;;2.28;1.80;;;;;;;19.53;68.44;100931.19;4932232;28;104001;-85
2022/06/05 05:45:12;;;;;;;2.35;2.13;;;;;;;19.55;68.34;100929.75;4937242;28;103757;-85
2022/06/05 05:47:43;;;;;;;2.40;2.20;;;;;;;19.58;68.18;100928.25;4934257;28;102449;-84
2022/06/05 05:50:15;;;;;;;2.38;2.17;;;;;;;19.59;68.30;100922.41;4935382;28;102268;-85
2022/06/05 05:52:43;;;;;;;2.60;2.40;;;;;;;19.62;68.08;100920.97;4927556;28;104155;-85
2022/06/05 05:55:12;;;;;;;2.60;2.40;;;;;;;19.64;68.40;100913.97;4932159;28;102444;-85
2022/06/05 05:57:39;;;;;;;2.35;2.15;;;;;;;19.67;68.21;100920.81;4931994;28;102217;-85
2022/06/05 06:00:09;;;;;;;2.67;2.47;;;;;;;19.68;68.01;100916.91;4934098;28;102371;-85
2022/06/05 06:02:36;;;;;;;2.58;2.20;;;;;;;19.68;67.98;100914.16;4934988;28;104015;-84
2022/06/05 06:05:06;;;;;;;2.58;2.17;;;;;;;19.69;68.19;100918.53;4937851;28;102286;-85
2022/06/05 06:07:33;;;;;;;2.78;2.00;;;;;;;19.75;67.12;100922.72;4936455;28;102711;-85
2022/06/05 06:10:01;;;;;;;2.50;2.22;;;;;;;19.75;67.77;100911.69;4931876;28;103079;-84
2022/06/05 06:12:28;;;;;;;1.98;1.88;;;;;;;19.68;68.04;100906.66;4929131;28;105190;-85
2022/06/05 06:14:54;;;;;;;2.22;2.03;;;;;;;19.65;68.01;100907.34;4930110;28;103076;-84
2022/06/05 06:17:21;;;;;;;3.38;2.20;;;;;;;19.65;67.85;100912.88;4935469;28;102672;-85
2022/06/05 06:19:48;;;;;;;2.38;2.03;;;;;;;19.62;68.05;100913.53;4942524;28;102204;-86
2022/06/05 06:22:17;;;;;;;2.28;2.00;;;;;;;19.61;68.10;100900.00;4946287;28;104012;-85
2022/06/05 06:24:44;;;;;;;2.20;2.00;;;;;;;19.61;67.99;100900.00;4951602;28;102680;-86
2022/06/05 06:27:11;;;;;;;3.47;3.17;;;;;;;19.60;68.14;100901.13;4935025;28;102231;-85
2022/06/05 06:29:37;;;;;;;3.72;2.22;;;;;;;19.61;67.65;100894.47;4940343;28;102520;-85
2022/06/05 06:32:05;;;;;;;2.78;2.42;;;;;;;19.60;68.04;100893.66;4934562;28;103926;-85
2022/06/05 06:34:33;;;;;;;2.47;2.10;;;;;;;19.59;67.74;100896.78;4933025;28;102148;-85
2022/06/05 06:36:59;;;;;;;4.10;2.10;;;;;;;19.59;68.04;100897.56;4931862;28;102024;-84
2022/06/05 06:39:28;;;;;;;2.40;2.20;;;;;;;19.59;67.78;100894.00;4934369;28;102666;-85
2022/06/05 06:41:55;;;;;;;2.40;2.20;;;;;;;19.61;67.88;100888.94;4936042;28;103987;-85
2022/06/05 06:44:23;;;;;;;2.60;2.40;;;;;;;19.59;67.73;100892.06;4937650;28;102322;-85
2022/06/05 06:46:49;;;;;;;3.28;2.50;;;;;;;19.59;67.81;100891.25;4935894;28;101936;-85
2022/06/05 06:49:18;;;;;;;2.50;2.30;;;;;;;19.61;67.85;100889.75;4938398;28;102217;-85
2022/06/05 06:51:45;;;;;;;2.60;2.28;;;;;;;19.61;67.93;100894.47;4932319;28;103824;-86
2022/06/05 06:54:12;;;;;;;4.68;2.55;;;;;;;19.61;67.65;100894.47;4918906;28;102577;-86
2022/06/05 06:56:42;;;;;;;2.35;2.15;;;;;;;19.61;67.75;100888.94;4934596;28;102528;-86
2022/06/05 06:59:09;;;;;;;2.53;2.30;;;;;;;19.62;67.93;100896.13;4938058;28;102218;-85
2022/06/05 07:01:36;;;;;;;2.85;2.10;;;;;;;19.62;67.71;100896.97;4936417;28;103989;-85
2022/06/05 07:04:03;;;;;;;2.10;2.00;;;;;;;19.63;67.58;100897.75;4936933;28;102044;-85
2022/06/05 07:06:30;;;;;;;2.40;2.20;;;;;;;19.62;67.72;100904.41;4935787;28;102111;-85
2022/06/05 07:08:57;;;;;;;2.13;2.03;;;;;;;19.63;67.86;100909.63;4938343;28;102164;-84
2022/06/05 07:11:24;;;;;;;2.42;2.20;;;;;;;19.62;67.75;100905.25;4936365;28;104169;-84
2022/06/05 07:13:56;;;;;;;2.55;2.35;;;;;;;19.63;67.86;100897.75;4937001;28;102061;-85
2022/06/05 07:16:22;;;;;;;2.50;2.30;;;;;;;19.64;67.68;100905.69;4936998;28;102448;-84
2022/06/05 07:18:50;;;;;;;2.95;1.90;;;;;;;19.64;67.84;100900.19;4937995;28;102216;-85
2022/06/05 07:21:19;;;;;;;2.40;2.13;;;;;;;19.65;67.70;100903.75;4932367;28;103984;-86
2022/06/05 07:23:46;;;;;;;2.47;2.28;;;;;;;19.66;67.40;100900.69;4935138;28;102791;-84
2022/06/05 07:26:17;;;;;;;3.13;2.20;;;;;;;19.68;67.55;100901.16;4935368;28;102034;-84
2022/06/05 07:28:43;;;;;;;2.30;2.10;;;;;;;19.67;67.48;100898.72;4935778;28;102466;-84
2022/06/05 07:31:13;;;;;;;2.25;2.05;;;;;;;19.65;67.49;100895.47;4932892;28;104243;-84
2022/06/05 07:33:43;;;;;;;2.63;2.20;;;;;;;19.66;67.44;100891.59;4934375;28;102001;-84
2022/06/05 07:36:12;;;;;;;2.30;2.10;;;;;;;19.67;67.77;100894.00;4932084;28;102067;-85
2022/06/05 07:38:40;;;;;;;2.60;2.40;;;;;;;19.73;67.66;100902.94;4934629;28;102267;-86
2022/06/05 07:41:14;;;;;;;2.30;2.10;;;;;;;19.74;67.62;100890.75;4933731;28;104358;-85
2022/06/05 07:43:41;;;;;;;2.05;1.95;;;;;;;19.74;67.56;100898.22;4937011;28;102209;-83
2022/06/05 07:46:07;;;;;;;2.30;2.10;;;;;;;19.76;67.49;100905.03;4935517;28;102662;-85
2022/06/05 07:48:35;;;;;;;2.10;1.90;;;;;;;19.77;67.39;100903.91;4935646;28;102205;-85
2022/06/05 07:56:34;;;;;;;2.13;1.98;;;;;;;19.72;67.36;100895.78;4933384;28;102325;-85
2022/06/05 07:59:01;;;;;;;3.45;2.25;;;;;;;19.71;67.34;100899.69;4933726;28;102111;-84
2022/06/05 08:01:28;;;;;;;2.55;2.33;;;;;;;19.69;67.42;100907.50;4932780;28;103922;-85
2022/06/05 08:04:12;;;;;;;2.13;2.00;;;;;;;19.69;67.36;100918.53;4924434;28;102403;-85
2022/06/05 08:06:39;;;;;;;2.20;2.00;;;;;;;19.68;67.26;100922.41;4932505;28;102491;-85
2022/06/05 08:09:09;;;;;;;2.05;1.95;;;;;;;19.67;67.58;100920.81;4935973;28;102298;-85
2022/06/05 08:11:39;;;;;;;2.55;2.33;;;;;;;19.65;67.47;100918.38;4914778;28;108130;-85
2022/06/05 08:14:06;;;;;;;3.58;2.75;;;;;;;19.66;67.49;100919.19;4935634;28;102268;-85
2022/06/05 08:16:32;;;;;;;2.53;2.33;;;;;;;19.65;67.53;100917.56;4933487;28;102253;-85
2022/06/05 08:18:59;;;;;;;2.45;2.28;;;;;;;19.66;68.06;100919.19;4928854;28;102422;-85
2022/06/05 08:21:27;;;;;;;2.00;1.90;;;;;;;19.64;67.76;100921.47;4921672;28;104052;-85
2022/06/05 08:23:54;;;;;;;2.25;2.05;;;;;;;19.62;68.02;100923.72;4932349;28;102729;-84
2022/06/05 08:26:21;;;;;;;2.30;2.20;;;;;;;19.62;67.78;100923.72;4933597;28;102480;-85
2022/06/05 08:28:47;;;;;;;2.38;2.17;;;;;;;19.60;68.05;100926.00;4951252;28;102313;-84
2022/06/05 08:31:16;;;;;;;2.55;2.33;;;;;;;19.61;68.07;100935.88;4940367;28;102952;-85
2022/06/05 08:33:44;;;;;;;2.38;2.17;;;;;;;19.61;67.79;100949.69;4946232;28;102179;-84
2022/06/05 08:36:11;;;;;;;2.58;2.38;;;;;;;19.60;68.02;100953.59;4934491;28;102119;-85
2022/06/05 08:41:43;;;;;;;2.78;2.58;;;;;;;19.59;68.29;100968.53;4946213;28;103936;-85
2022/06/05 08:44:21;;;;;;;2.15;2.05;;;;;;;19.59;67.94;100974.06;4951523;28;101991;-85
2022/06/05 08:46:56;;;;;;;2.72;2.13;;;;;;;19.58;68.29;100983.47;4949883;28;101987;-85
2022/06/05 08:49:38;;;;;;;2.75;2.15;;;;;;;19.57;68.09;100988.19;4950515;28;104731;-85
2022/06/05 08:52:19;;;;;;;3.30;2.10;;;;;;;19.57;68.21;100992.88;4941925;28;103018;-85
2022/06/05 08:54:52;;;;;;;2.63;2.40;;;;;;;19.56;68.04;100992.09;4944227;28;102010;-85
2022/06/05 08:57:24;;;;;;;2.42;2.17;;;;;;;19.56;68.21;100985.75;4953218;28;102137;-85
2022/06/05 08:59:57;;;;;;;2.40;2.20;;;;;;;19.54;68.25;100983.31;4951353;28;102204;-85
2022/06/05 09:02:32;;;;;;;2.50;2.30;;;;;;;19.54;68.33;100979.72;4947808;28;108037;-86
2022/06/05 09:05:05;;;;;;;2.90;2.60;;;;;;;19.53;68.12;100978.94;4953524;28;102563;-85
2022/06/05 09:07:37;;;;;;;2.58;2.38;;;;;;;19.54;68.17;100971.44;4937339;28;102479;-85
2022/06/05 09:10:16;;;;;;;2.88;2.67;;;;;;;19.53;68.34;100975.38;4937814;28;102634;-85
2022/06/05 09:12:48;;;;;;;2.95;2.67;;;;;;;19.52;68.25;100988.34;4946615;28;103980;-85
2022/06/05 09:15:21;;;;;;;3.40;3.10;;;;;;;19.53;68.23;100980.88;4939063;28;102216;-85
2022/06/05 09:17:54;;;;;;;3.30;3.00;;;;;;;19.52;68.24;100968.22;4946792;28;102642;-85
2022/06/05 09:20:30;;;;;;;3.30;3.00;;;;;;;19.51;68.24;100974.88;4953098;28;102173;-86
2022/06/05 09:23:02;;;;;;;3.63;3.30;;;;;;;19.51;68.20;100950.03;4946852;28;103953;-85
2022/06/05 09:25:43;;;;;;;3.67;3.38;;;;;;;19.50;68.25;100948.41;4930210;28;103377;-86
2022/06/05 09:28:35;;;;;;;3.40;3.00;;;;;;;19.49;68.46;100944.03;4938759;28;102586;-86
2022/06/05 09:31:20;;;;;;;4.07;3.67;;;;;;;19.49;68.07;100941.28;4931933;28;102949;-85
2022/06/05 09:33:51;;;;;;;3.58;3.28;;;;;;;19.50;68.43;100948.41;4928949;28;108157;-86
2022/06/05 09:36:21;;;;;;;3.33;2.80;;;;;;;19.50;68.05;100949.22;4933210;28;102612;-86
2022/06/05 09:38:52;;;;;;;3.33;3.05;;;;;;;19.50;68.06;100937.38;4931293;28;104932;-86
2022/06/05 09:41:33;;;;;;;4.43;3.60;;;;;;;19.50;68.19;100934.59;4936707;28;102545;-85
2022/06/05 09:44:24;;;;;;;3.60;3.30;;;;;;;19.49;67.84;100938.50;4935669;28;104207;-85
2022/06/05 09:46:59;;;;;;;3.58;3.20;;;;;;;19.49;68.10;100935.75;4933149;28;102401;-86
2022/06/05 09:49:33;;;;;;;3.65;3.35;;;;;;;19.49;68.08;100946.78;4931284;28;102192;-85
2022/06/05 09:52:10;;;;;;;3.42;3.13;;;;;;;19.49;67.96;100958.63;4935265;28;103574;-85
2022/06/05 09:54:42;;;;;;;3.67;3.10;;;;;;;19.49;68.43;100963.34;4933435;28;103880;-85
2022/06/05 10:00:27;;;;;;;3.60;3.30;;;;;;;19.51;68.14;100983.13;4916057;28;102607;-85
2022/06/05 10:02:59;;;;;;;3.58;3.28;;;;;;;19.51;68.03;100977.63;4930496;28;102278;-85
2022/06/05 10:05:28;;;;;;;3.30;2.85;;;;;;;19.51;68.17;100972.09;4935430;28;103933;-85
2022/06/05 10:08:03;;;;;;;4.63;3.20;;;;;;;19.52;68.37;100984.78;4935676;28;102918;-87
2022/06/05 10:10:36;;;;;;;3.15;2.80;;;;;;;19.51;68.38;100975.69;4931783;28;102312;-86
2022/06/05 10:13:12;;;;;;;3.67;3.17;;;;;;;19.52;68.19;100965.47;4934821;28;102387;-84
2022/06/05 10:15:45;;;;;;;3.35;3.05;;;;;;;19.54;68.31;100976.97;4933055;28;103927;-84
2022/06/05 10:18:17;;;;;;;3.50;3.22;;;;;;;19.52;68.46;100979.28;4927321;28;104718;-84
2022/06/05 10:20:56;;;;;;;3.33;3.03;;;;;;;19.52;68.46;100987.53;4928252;28;102467;-84
2022/06/05 10:23:47;;;;;;;3.45;3.15;;;;;;;19.52;68.10;100990.31;4928204;28;102747;-84
2022/06/05 10:26:24;;;;;;;3.03;2.80;;;;;;;19.51;68.32;100988.66;4918879;28;103848;-84
2022/06/05 10:29:06;;;;;;;3.42;3.13;;;;;;;19.51;68.60;100983.13;4936166;28;102227;-84
2022/06/05 10:31:34;;;;;;;3.30;3.00;;;;;;;19.50;68.59;100982.34;4937221;28;102049;-84
2022/06/05 10:34:15;;;;;;;3.30;2.97;;;;;;;19.50;68.63;100981.53;4937794;28;102140;-84
2022/06/05 10:36:52;;;;;;;3.17;2.85;;;;;;;19.50;68.26;100992.56;4935630;28;107998;-84
2022/06/05 10:39:27;;;;;;;3.55;3.25;;;;;;;19.50;68.59;100987.03;4938211;28;102431;-83
2022/06/05 10:42:13;;;;;;;4.35;3.35;;;;;;;19.50;68.46;100978.78;4939757;28;102525;-84
2022/06/05 10:44:52;;;;;;;3.20;2.90;;;;;;;19.51;68.46;100983.13;4941409;28;102070;-84
2022/06/05 10:47:31;;;;;;;3.55;2.97;;;;;;;19.50;68.42;100981.53;4937870;28;103920;-84
2022/06/05 10:50:07;;;;;;;3.70;3.38;;;;;;;19.51;68.69;100966.59;4938271;28;102865;-84
2022/06/05 10:52:39;;;;;;;3.65;3.35;;;;;;;19.51;68.48;100983.13;4929991;28;102620;-84
2022/06/05 10:55:24;;;;;;;3.03;2.83;;;;;;;19.52;68.59;100971.00;4938024;28;102745;-84
2022/06/05 10:57:59;;;;;;;3.55;3.17;;;;;;;19.51;68.75;100967.41;4930667;28;103895;-85
2022/06/05 11:00:37;;;;;;;3.65;3.30;;;;;;;19.52;68.72;100962.69;4936687;28;102075;-83
2022/06/05 11:03:17;;;;;;;3.33;3.00;;;;;;;19.51;68.47;100952.78;4937771;28;102492;-84
2022/06/05 11:05:52;;;;;;;;;;;;;;;19.55;68.78;100942.72;4939620;28;102347;-83
2022/06/05 11:08:29;;;;;;;3.63;3.33;;;;;;;19.57;68.62;100943.19;4937831;28;104015;-84
2022/06/05 11:14:02;;;;;;;3.20;2.88;;;;;;;19.56;68.87;100930.53;4935149;28;102779;-84
2022/06/05 11:16:38;;;;;;;3.47;3.17;;;;;;;19.56;68.46;100925.03;4936368;28;102584;-84
2022/06/05 11:19:15;;;;;;;3.22;2.95;;;;;;;19.57;68.71;100932.16;4928216;28;104117;-85
2022/06/05 11:21:43;;;;;;;4.57;2.90;;;;;;;19.56;68.87;100925.03;4927423;28;102683;-86
2022/06/05 11:24:20;;;;;;;3.47;3.17;;;;;;;19.56;68.64;100933.31;4929194;28;102259;-85
2022/06/05 11:26:54;;;;;;;3.42;3.13;;;;;;;19.57;68.76;100926.63;4935737;28;102588;-84
2022/06/05 11:29:32;;;;;;;3.47;3.10;;;;;;;19.55;68.63;100923.41;4932747;28;103929;-85
2022/06/05 11:32:23;;;;;;;3.67;3.38;;;;;;;19.55;68.84;100917.88;4925800;28;102444;-84
2022/06/05 11:34:56;;;;;;;3.30;2.97;;;;;;;19.55;68.93;100917.88;4934369;28;102335;-84
2022/06/05 11:37:38;;;;;;;3.40;3.10;;;;;;;19.56;68.86;100927.78;4935289;28;102835;-85
2022/06/05 11:40:17;;;;;;;3.35;3.05;;;;;;;19.58;68.90;100933.78;4931898;28;104047;-83
2022/06/05 11:42:49;;;;;;;3.65;3.20;;;;;;;19.57;68.91;100932.97;4935287;28;102149;-84
2022/06/05 11:45:36;;;;;;;5.05;3.38;;;;;;;19.57;68.92;100932.16;4935253;28;102347;-85
2022/06/05 11:48:13;;;;;;;4.10;3.22;;;;;;;19.58;68.86;100918.03;4935059;28;102579;-85
2022/06/05 11:50:47;;;;;;;3.72;3.42;;;;;;;19.58;68.80;100923.56;4934121;28;103929;-85
2022/06/05 11:53:21;;;;;;;3.40;3.20;;;;;;;19.57;69.00;100932.16;4929809;28;102068;-85
2022/06/05 11:55:56;;;;;;;3.08;2.88;;;;;;;19.58;69.13;100936.53;4934178;28;102180;-85
2022/06/05 11:58:37;;;;;;;3.35;3.05;;;;;;;19.57;68.90;100940.44;4936131;28;102450;-83